sensor_id;sensor_type;location;lat;lon;timestamp;pressure;altitude;pressure_sealevel;temperature;humidity
11672;BME280;5892;43.412;24.612;2023-02-26T00:02:12;98654.44;;;11.50;80.31
11672;BME280;5892;43.412;24.612;2023-02-26T00:04:40;98678.88;;;11.55;79.74
11672;BME280;5892;43.412;24.612;2023-02-26T00:07:08;98628.75;;;11.23;79.45
11672;BME280;5892;43.412;24.612;2023-02-26T00:09:35;98670.09;;;11.65;78.42
11672;BME280;5892;43.412;24.612;2023-02-26T00:12:03;98685.41;;;11.66;77.64
11672;BME280;5892;43.412;24.612;2023-02-26T00:14:30;98631.28;;;11.31;78.02
11672;BME280;5892;43.412;24.612;2023-02-26T00:17:12;98648.25;;;11.53;77.44
11672;BME280;5892;43.412;24.612;2023-02-26T00:19:44;98649.56;;;11.59;77.31
11672;BME280;5892;43.412;24.612;2023-02-26T00:22:13;98607.13;;;11.37;77.15
11672;BME280;5892;43.412;24.612;2023-02-26T00:24:40;98667.84;;;11.86;77.06
11672;BME280;5892;43.412;24.612;2023-02-26T00:27:08;98665.47;;;11.84;77.16
11672;BME280;5892;43.412;24.612;2023-02-26T00:29:36;98564.53;;;11.24;76.99
11672;BME280;5892;43.412;24.612;2023-02-26T00:32:04;98671.91;;;11.92;76.79
11672;BME280;5892;43.412;24.612;2023-02-26T00:34:31;98669.50;;;11.91;76.85
11672;BME280;5892;43.412;24.612;2023-02-26T00:37:08;98634.41;;;11.80;75.53
11672;BME280;5892;43.412;24.612;2023-02-26T00:39:48;98632.88;;;11.83;75.72
11672;BME280;5892;43.412;24.612;2023-02-26T00:42:17;98630.94;;;11.83;75.46
11672;BME280;5892;43.412;24.612;2023-02-26T00:44:45;98653.00;;;12.06;75.21
11672;BME280;5892;43.412;24.612;2023-02-26T00:47:18;98649.09;;;12.07;74.38
11672;BME280;5892;43.412;24.612;2023-02-26T00:49:55;98650.47;;;12.17;73.86
11672;BME280;5892;43.412;24.612;2023-02-26T00:52:31;98645.13;;;12.24;73.59
11672;BME280;5892;43.412;24.612;2023-02-26T00:55:03;98643.59;;;12.26;73.90
11672;BME280;5892;43.412;24.612;2023-02-26T00:57:30;98637.69;;;12.24;73.67
11672;BME280;5892;43.412;24.612;2023-02-26T00:59:57;98639.34;;;12.29;73.24
11672;BME280;5892;43.412;24.612;2023-02-26T01:02:25;98628.38;;;12.29;71.80
11672;BME280;5892;43.412;24.612;2023-02-26T01:04:52;98634.47;;;12.42;72.35
11672;BME280;5892;43.412;24.612;2023-02-26T01:07:22;98619.53;;;12.39;72.07
11672;BME280;5892;43.412;24.612;2023-02-26T01:09:49;98608.59;;;12.43;71.32
11672;BME280;5892;43.412;24.612;2023-02-26T01:12:20;98619.00;;;12.53;70.97
11672;BME280;5892;43.412;24.612;2023-02-26T01:14:48;98618.34;;;12.59;70.45
11672;BME280;5892;43.412;24.612;2023-02-26T01:17:20;98638.00;;;12.61;70.01
11672;BME280;5892;43.412;24.612;2023-02-26T01:19:51;98617.25;;;12.64;69.85
11672;BME280;5892;43.412;24.612;2023-02-26T01:22:23;98617.31;;;12.67;69.64
11672;BME280;5892;43.412;24.612;2023-02-26T01:24:55;98606.81;;;12.73;67.87
11672;BME280;5892;43.412;24.612;2023-02-26T01:27:27;98579.09;;;12.59;67.72
11672;BME280;5892;43.412;24.612;2023-02-26T01:29:54;98612.56;;;12.87;67.66
11672;BME280;5892;43.412;24.612;2023-02-26T01:32:25;98587.56;;;12.73;67.30
11672;BME280;5892;43.412;24.612;2023-02-26T01:35:00;98606.88;;;12.99;66.81
11672;BME280;5892;43.412;24.612;2023-02-26T01:37:46;98601.81;;;13.01;66.47
11672;BME280;5892;43.412;24.612;2023-02-26T01:40:35;98601.13;;;13.08;65.90
11672;BME280;5892;43.412;24.612;2023-02-26T01:43:09;98598.38;;;13.08;65.43
11672;BME280;5892;43.412;24.612;2023-02-26T01:45:42;98597.34;;;13.16;65.51
11672;BME280;5892;43.412;24.612;2023-02-26T01:48:19;98591.19;;;13.23;65.18
11672;BME280;5892;43.412;24.612;2023-02-26T01:50:54;98585.59;;;13.19;64.99
11672;BME280;5892;43.412;24.612;2023-02-26T01:53:22;98527.09;;;12.73;64.68
11672;BME280;5892;43.412;24.612;2023-02-26T01:55:52;98584.88;;;13.22;65.29
11672;BME280;5892;43.412;24.612;2023-02-26T01:58:26;98591.66;;;13.28;64.54
11672;BME280;5892;43.412;24.612;2023-02-26T02:01:09;98571.94;;;13.23;63.38
11672;BME280;5892;43.412;24.612;2023-02-26T02:03:39;98604.94;;;13.49;63.11
11672;BME280;5892;43.412;24.612;2023-02-26T02:06:08;98601.09;;;13.57;62.69
11672;BME280;5892;43.412;24.612;2023-02-26T02:08:37;98586.72;;;13.41;62.92
11672;BME280;5892;43.412;24.612;2023-02-26T02:11:09;98602.69;;;13.58;62.16
11672;BME280;5892;43.412;24.612;2023-02-26T02:13:51;98600.31;;;13.56;62.02
11672;BME280;5892;43.412;24.612;2023-02-26T02:16:29;98600.31;;;13.56;61.61
11672;BME280;5892;43.412;24.612;2023-02-26T02:19:07;98590.28;;;13.41;61.82
11672;BME280;5892;43.412;24.612;2023-02-26T02:21:49;98546.50;;;13.06;62.13
11672;BME280;5892;43.412;24.612;2023-02-26T02:24:34;98510.06;;;12.87;62.17
11672;BME280;5892;43.412;24.612;2023-02-26T02:27:14;98601.34;;;13.45;62.46
11672;BME280;5892;43.412;24.612;2023-02-26T02:30:08;98609.59;;;13.45;62.05
11672;BME280;5892;43.412;24.612;2023-02-26T02:32:45;98610.47;;;13.52;61.66
11672;BME280;5892;43.412;24.612;2023-02-26T02:35:17;98617.16;;;13.51;61.21
11672;BME280;5892;43.412;24.612;2023-02-26T02:37:49;98621.50;;;13.52;60.78
11672;BME280;5892;43.412;24.612;2023-02-26T02:40:22;98596.03;;;13.33;60.47
11672;BME280;5892;43.412;24.612;2023-02-26T02:42:55;98619.97;;;13.55;60.64
11672;BME280;5892;43.412;24.612;2023-02-26T02:45:27;98615.88;;;13.45;60.62
11672;BME280;5892;43.412;24.612;2023-02-26T02:48:03;98613.75;;;13.62;59.61
11672;BME280;5892;43.412;24.612;2023-02-26T02:50:34;98630.22;;;13.58;59.57
11672;BME280;5892;43.412;24.612;2023-02-26T02:53:06;98610.59;;;13.60;59.85
11672;BME280;5892;43.412;24.612;2023-02-26T02:55:37;98618.91;;;13.63;60.41
11672;BME280;5892;43.412;24.612;2023-02-26T02:58:07;98616.13;;;13.63;59.62
11672;BME280;5892;43.412;24.612;2023-02-26T03:00:39;98619.94;;;13.81;58.58
11672;BME280;5892;43.412;24.612;2023-02-26T03:03:15;98614.13;;;13.86;58.35
11672;BME280;5892;43.412;24.612;2023-02-26T03:05:44;98618.97;;;13.96;57.38
11672;BME280;5892;43.412;24.612;2023-02-26T03:08:15;98520.38;;;13.46;57.39
11672;BME280;5892;43.412;24.612;2023-02-26T03:10:43;98608.56;;;14.13;57.25
11672;BME280;5892;43.412;24.612;2023-02-26T03:13:14;98616.22;;;14.30;56.58
11672;BME280;5892;43.412;24.612;2023-02-26T03:15:49;98619.53;;;14.39;56.43
11672;BME280;5892;43.412;24.612;2023-02-26T03:18:30;98597.25;;;14.25;55.81
11672;BME280;5892;43.412;24.612;2023-02-26T03:21:05;98612.91;;;14.47;55.58
11672;BME280;5892;43.412;24.612;2023-02-26T03:23:41;98617.41;;;14.66;55.13
11672;BME280;5892;43.412;24.612;2023-02-26T03:26:13;98599.78;;;14.70;54.81
11672;BME280;5892;43.412;24.612;2023-02-26T03:28:46;98601.84;;;14.80;53.58
11672;BME280;5892;43.412;24.612;2023-02-26T03:31:19;98607.00;;;14.86;53.83
11672;BME280;5892;43.412;24.612;2023-02-26T03:33:53;98599.66;;;15.04;52.86
11672;BME280;5892;43.412;24.612;2023-02-26T03:36:25;98609.53;;;15.05;52.77
11672;BME280;5892;43.412;24.612;2023-02-26T03:39:00;98549.78;;;14.75;51.98
11672;BME280;5892;43.412;24.612;2023-02-26T03:41:32;98597.72;;;15.08;51.91
11672;BME280;5892;43.412;24.612;2023-02-26T03:44:03;98584.25;;;14.96;51.61
11672;BME280;5892;43.412;24.612;2023-02-26T03:46:38;98605.25;;;15.11;50.95
11672;BME280;5892;43.412;24.612;2023-02-26T03:49:12;98613.16;;;15.16;50.97
11672;BME280;5892;43.412;24.612;2023-02-26T03:51:43;98534.81;;;14.76;50.03
11672;BME280;5892;43.412;24.612;2023-02-26T03:54:14;98530.19;;;14.88;50.09
11672;BME280;5892;43.412;24.612;2023-02-26T03:56:46;98612.09;;;15.27;50.14
11672;BME280;5892;43.412;24.612;2023-02-26T03:59:14;98620.03;;;15.36;49.81
11672;BME280;5892;43.412;24.612;2023-02-26T04:01:44;98613.34;;;15.41;49.52
11672;BME280;5892;43.412;24.612;2023-02-26T04:04:19;98558.56;;;14.92;49.81
11672;BME280;5892;43.412;24.612;2023-02-26T04:06:48;98618.44;;;15.35;49.65
11672;BME280;5892;43.412;24.612;2023-02-26T04:09:17;98622.81;;;15.40;49.67
11672;BME280;5892;43.412;24.612;2023-02-26T04:11:46;98578.09;;;15.16;49.79
11672;BME280;5892;43.412;24.612;2023-02-26T04:14:14;98616.53;;;15.43;49.86
11672;BME280;5892;43.412;24.612;2023-02-26T04:16:41;98626.78;;;15.46;49.86
11672;BME280;5892;43.412;24.612;2023-02-26T04:19:09;98627.88;;;15.31;50.41
11672;BME280;5892;43.412;24.612;2023-02-26T04:21:38;98600.47;;;15.04;50.23
11672;BME280;5892;43.412;24.612;2023-02-26T04:24:05;98607.81;;;15.37;50.53
11672;BME280;5892;43.412;24.612;2023-02-26T04:26:32;98568.25;;;15.15;50.08
11672;BME280;5892;43.412;24.612;2023-02-26T04:28:58;98580.59;;;15.36;50.36
11672;BME280;5892;43.412;24.612;2023-02-26T04:31:25;98572.69;;;15.31;50.38
11672;BME280;5892;43.412;24.612;2023-02-26T04:33:52;98579.06;;;15.38;50.17
11672;BME280;5892;43.412;24.612;2023-02-26T04:36:19;98579.81;;;15.39;50.00
11672;BME280;5892;43.412;24.612;2023-02-26T04:38:48;98567.94;;;15.27;50.01
11672;BME280;5892;43.412;24.612;2023-02-26T04:41:15;98577.78;;;15.28;50.17
11672;BME280;5892;43.412;24.612;2023-02-26T04:43:41;98586.50;;;15.34;49.78
11672;BME280;5892;43.412;24.612;2023-02-26T04:46:09;98588.88;;;15.36;49.67
11672;BME280;5892;43.412;24.612;2023-02-26T04:48:37;98558.78;;;15.16;49.69
11672;BME280;5892;43.412;24.612;2023-02-26T04:51:04;98538.09;;;14.93;49.32
11672;BME280;5892;43.412;24.612;2023-02-26T05:00:15;98582.47;;;15.24;49.29
11672;BME280;5892;43.412;24.612;2023-02-26T05:02:42;98614.16;;;15.45;49.30
11672;BME280;5892;43.412;24.612;2023-02-26T05:05:09;98620.84;;;15.40;49.43
11672;BME280;5892;43.412;24.612;2023-02-26T05:07:36;98609.81;;;15.40;49.27
11672;BME280;5892;43.412;24.612;2023-02-26T05:10:04;98617.69;;;15.38;49.13
11672;BME280;5892;43.412;24.612;2023-02-26T05:12:31;98613.34;;;15.37;49.36
11672;BME280;5892;43.412;24.612;2023-02-26T05:14:58;98586.03;;;15.21;49.07
11672;BME280;5892;43.412;24.612;2023-02-26T05:17:26;98612.56;;;15.40;49.07
11672;BME280;5892;43.412;24.612;2023-02-26T05:19:53;98599.13;;;15.35;49.19
11672;BME280;5892;43.412;24.612;2023-02-26T05:22:20;98552.66;;;14.90;49.19
11672;BME280;5892;43.412;24.612;2023-02-26T05:24:47;98525.44;;;14.84;48.74
11672;BME280;5892;43.412;24.612;2023-02-26T05:27:14;98509.28;;;14.83;48.70
11672;BME280;5892;43.412;24.612;2023-02-26T05:29:41;98608.28;;;15.46;48.55
11672;BME280;5892;43.412;24.612;2023-02-26T05:32:09;98538.19;;;15.03;48.43
11672;BME280;5892;43.412;24.612;2023-02-26T05:34:38;98603.97;;;15.49;48.20
11672;BME280;5892;43.412;24.612;2023-02-26T05:37:05;98609.09;;;15.50;48.45
11672;BME280;5892;43.412;24.612;2023-02-26T05:39:31;98606.31;;;15.47;48.58
11672;BME280;5892;43.412;24.612;2023-02-26T05:41:58;98561.94;;;15.15;48.49
11672;BME280;5892;43.412;24.612;2023-02-26T05:44:25;98632.78;;;15.55;48.37
11672;BME280;5892;43.412;24.612;2023-02-26T05:46:52;98554.81;;;15.14;48.41
11672;BME280;5892;43.412;24.612;2023-02-26T05:49:20;98634.00;;;15.57;48.35
11672;BME280;5892;43.412;24.612;2023-02-26T05:51:48;98628.50;;;15.61;48.51
11672;BME280;5892;43.412;24.612;2023-02-26T05:54:15;98627.38;;;15.69;47.92
11672;BME280;5892;43.412;24.612;2023-02-26T05:56:42;98617.09;;;15.66;47.67
11672;BME280;5892;43.412;24.612;2023-02-26T05:59:09;98626.66;;;15.79;47.63
11672;BME280;5892;43.412;24.612;2023-02-26T06:01:36;98610.47;;;15.74;47.33
11672;BME280;5892;43.412;24.612;2023-02-26T06:04:04;98630.25;;;15.87;47.62
11672;BME280;5892;43.412;24.612;2023-02-26T06:06:31;98627.91;;;15.89;47.31
11672;BME280;5892;43.412;24.612;2023-02-26T06:08:59;98613.66;;;15.87;47.24
11672;BME280;5892;43.412;24.612;2023-02-26T06:11:27;98636.19;;;15.89;47.53
11672;BME280;5892;43.412;24.612;2023-02-26T06:13:54;98640.56;;;15.97;47.23
11672;BME280;5892;43.412;24.612;2023-02-26T06:16:21;98654.78;;;15.99;47.08
11672;BME280;5892;43.412;24.612;2023-02-26T06:18:49;98552.72;;;15.51;47.21
11672;BME280;5892;43.412;24.612;2023-02-26T06:21:16;98648.53;;;16.09;47.40
11672;BME280;5892;43.412;24.612;2023-02-26T06:23:43;98639.31;;;15.87;47.32
11672;BME280;5892;43.412;24.612;2023-02-26T06:26:12;98645.34;;;16.07;47.30
11672;BME280;5892;43.412;24.612;2023-02-26T06:28:39;98648.53;;;16.13;47.58
11672;BME280;5892;43.412;24.612;2023-02-26T06:31:06;98653.25;;;16.12;47.38
11672;BME280;5892;43.412;24.612;2023-02-26T06:33:33;98591.50;;;15.73;47.49
11672;BME280;5892;43.412;24.612;2023-02-26T06:35:59;98646.59;;;16.17;46.99
11672;BME280;5892;43.412;24.612;2023-02-26T06:38:27;98652.56;;;16.29;46.67
11672;BME280;5892;43.412;24.612;2023-02-26T06:40:54;98578.16;;;15.85;46.86
11672;BME280;5892;43.412;24.612;2023-02-26T06:43:23;98597.19;;;16.08;46.47
11672;BME280;5892;43.412;24.612;2023-02-26T06:45:50;98586.91;;;15.98;46.01
11672;BME280;5892;43.412;24.612;2023-02-26T06:48:17;98639.25;;;16.60;45.77
11672;BME280;5892;43.412;24.612;2023-02-26T06:50:44;98654.72;;;16.75;45.37
11672;BME280;5892;43.412;24.612;2023-02-26T06:53:10;98615.56;;;16.66;44.71
11672;BME280;5892;43.412;24.612;2023-02-26T06:55:42;98655.16;;;17.02;44.25
11672;BME280;5892;43.412;24.612;2023-02-26T06:58:10;98639.75;;;17.04;43.17
11672;BME280;5892;43.412;24.612;2023-02-26T07:00:39;98600.59;;;16.91;42.77
11672;BME280;5892;43.412;24.612;2023-02-26T07:03:07;98668.66;;;17.46;42.55
11672;BME280;5892;43.412;24.612;2023-02-26T07:05:39;98669.44;;;17.50;42.12
11672;BME280;5892;43.412;24.612;2023-02-26T07:08:06;98591.94;;;17.14;41.68
11672;BME280;5892;43.412;24.612;2023-02-26T07:10:34;98650.84;;;17.82;41.36
11672;BME280;5892;43.412;24.612;2023-02-26T07:13:04;98607.34;;;17.61;40.98
11672;BME280;5892;43.412;24.612;2023-02-26T07:15:31;98645.66;;;18.05;40.68
11672;BME280;5892;43.412;24.612;2023-02-26T07:17:59;98587.88;;;17.93;39.77
11672;BME280;5892;43.412;24.612;2023-02-26T07:20:27;98568.88;;;17.88;39.56
11672;BME280;5892;43.412;24.612;2023-02-26T07:22:55;98644.66;;;18.51;38.89
11672;BME280;5892;43.412;24.612;2023-02-26T07:25:22;98630.78;;;18.61;38.45
11672;BME280;5892;43.412;24.612;2023-02-26T07:27:49;98602.66;;;18.49;37.55
11672;BME280;5892;43.412;24.612;2023-02-26T07:30:16;98634.63;;;18.82;37.73
11672;BME280;5892;43.412;24.612;2023-02-26T07:32:43;98649.59;;;18.98;37.45
11672;BME280;5892;43.412;24.612;2023-02-26T07:35:11;98603.31;;;18.81;36.93
11672;BME280;5892;43.412;24.612;2023-02-26T07:37:38;98589.88;;;18.69;36.25
11672;BME280;5892;43.412;24.612;2023-02-26T07:40:06;98655.78;;;19.20;35.97
11672;BME280;5892;43.412;24.612;2023-02-26T07:42:33;98658.09;;;19.29;36.14
11672;BME280;5892;43.412;24.612;2023-02-26T07:45:00;98671.06;;;19.42;36.28
11672;BME280;5892;43.412;24.612;2023-02-26T07:47:29;98640.28;;;19.23;35.48
11672;BME280;5892;43.412;24.612;2023-02-26T07:49:56;98569.09;;;18.98;36.08
11672;BME280;5892;43.412;24.612;2023-02-26T07:52:24;98651.09;;;19.58;35.61
11672;BME280;5892;43.412;24.612;2023-02-26T07:54:51;98645.88;;;19.67;34.97
11672;BME280;5892;43.412;24.612;2023-02-26T07:57:18;98585.38;;;19.41;35.07
11672;BME280;5892;43.412;24.612;2023-02-26T07:59:45;98641.78;;;19.82;34.82
11672;BME280;5892;43.412;24.612;2023-02-26T08:02:12;98613.59;;;19.80;34.37
11672;BME280;5892;43.412;24.612;2023-02-26T08:04:39;98624.13;;;19.96;34.04
11672;BME280;5892;43.412;24.612;2023-02-26T08:07:07;98647.00;;;20.11;33.98
11672;BME280;5892;43.412;24.612;2023-02-26T08:09:35;98619.50;;;20.20;33.81
11672;BME280;5892;43.412;24.612;2023-02-26T08:12:14;98630.63;;;20.20;33.36
11672;BME280;5892;43.412;24.612;2023-02-26T08:14:41;98601.84;;;20.00;33.29
11672;BME280;5892;43.412;24.612;2023-02-26T08:17:08;98621.06;;;20.21;33.31
11672;BME280;5892;43.412;24.612;2023-02-26T08:19:35;98625.69;;;20.01;33.04
11672;BME280;5892;43.412;24.612;2023-02-26T08:22:02;98635.53;;;20.09;33.42
11672;BME280;5892;43.412;24.612;2023-02-26T08:24:29;98636.69;;;20.11;33.26
11672;BME280;5892;43.412;24.612;2023-02-26T08:26:58;98636.34;;;20.06;33.27
11672;BME280;5892;43.412;24.612;2023-02-26T08:29:25;98544.88;;;19.43;33.38
11672;BME280;5892;43.412;24.612;2023-02-26T08:31:54;98634.00;;;20.04;33.86
11672;BME280;5892;43.412;24.612;2023-02-26T08:34:21;98578.34;;;19.70;33.92
11672;BME280;5892;43.412;24.612;2023-02-26T08:36:48;98599.25;;;19.85;34.05
11672;BME280;5892;43.412;24.612;2023-02-26T08:39:16;98621.69;;;20.02;33.36
11672;BME280;5892;43.412;24.612;2023-02-26T08:41:43;98572.81;;;19.70;33.44
11672;BME280;5892;43.412;24.612;2023-02-26T08:44:12;98619.97;;;20.15;33.63
11672;BME280;5892;43.412;24.612;2023-02-26T08:46:39;98624.06;;;20.37;33.68
11672;BME280;5892;43.412;24.612;2023-02-26T08:49:05;98562.53;;;20.01;33.58
11672;BME280;5892;43.412;24.612;2023-02-26T08:51:32;98639.75;;;20.54;33.42
11672;BME280;5892;43.412;24.612;2023-02-26T08:53:59;98622.03;;;20.71;33.20
11672;BME280;5892;43.412;24.612;2023-02-26T08:56:26;98606.13;;;20.72;33.43
11672;BME280;5892;43.412;24.612;2023-02-26T08:58:53;98610.16;;;20.94;32.78
11672;BME280;5892;43.412;24.612;2023-02-26T09:01:21;98614.66;;;20.88;32.65
11672;BME280;5892;43.412;24.612;2023-02-26T09:03:48;98549.25;;;20.46;32.94
11672;BME280;5892;43.412;24.612;2023-02-26T09:06:29;98569.22;;;20.38;32.65
11672;BME280;5892;43.412;24.612;2023-02-26T09:08:56;98573.53;;;20.73;32.60
11672;BME280;5892;43.412;24.612;2023-02-26T09:11:22;98613.47;;;20.86;32.91
11672;BME280;5892;43.412;24.612;2023-02-26T09:13:50;98616.50;;;20.98;32.84
11672;BME280;5892;43.412;24.612;2023-02-26T09:16:17;98606.72;;;21.10;32.45
11672;BME280;5892;43.412;24.612;2023-02-26T09:18:46;98618.97;;;21.20;32.88
11672;BME280;5892;43.412;24.612;2023-02-26T09:21:13;98615.88;;;21.10;32.66
11672;BME280;5892;43.412;24.612;2023-02-26T09:23:40;98633.06;;;21.05;32.82
11672;BME280;5892;43.412;24.612;2023-02-26T09:26:06;98618.25;;;21.12;32.56
11672;BME280;5892;43.412;24.612;2023-02-26T09:28:34;98610.84;;;21.02;32.55
11672;BME280;5892;43.412;24.612;2023-02-26T09:31:02;98610.47;;;21.00;33.04
11672;BME280;5892;43.412;24.612;2023-02-26T09:33:28;98528.72;;;20.63;32.60
11672;BME280;5892;43.412;24.612;2023-02-26T09:35:57;98595.03;;;21.22;32.54
11672;BME280;5892;43.412;24.612;2023-02-26T09:38:24;98595.34;;;21.28;32.46
11672;BME280;5892;43.412;24.612;2023-02-26T09:40:54;98604.84;;;21.30;32.33
11672;BME280;5892;43.412;24.612;2023-02-26T09:43:34;98611.50;;;21.60;32.53
11672;BME280;5892;43.412;24.612;2023-02-26T09:46:09;98583.41;;;21.50;31.95
11672;BME280;5892;43.412;24.612;2023-02-26T09:48:39;98596.19;;;21.71;31.91
11672;BME280;5892;43.412;24.612;2023-02-26T09:51:15;98602.41;;;21.79;31.96
11672;BME280;5892;43.412;24.612;2023-02-26T09:53:43;98612.13;;;21.71;31.67
11672;BME280;5892;43.412;24.612;2023-02-26T09:56:15;98610.25;;;21.84;32.02
11672;BME280;5892;43.412;24.612;2023-02-26T09:58:44;98617.53;;;21.78;31.15
11672;BME280;5892;43.412;24.612;2023-02-26T10:01:15;98610.03;;;21.75;31.21
11672;BME280;5892;43.412;24.612;2023-02-26T10:03:54;98613.69;;;21.72;31.87
11672;BME280;5892;43.412;24.612;2023-02-26T10:06:26;98607.38;;;21.68;31.69
11672;BME280;5892;43.412;24.612;2023-02-26T10:09:11;98606.34;;;21.81;32.01
11672;BME280;5892;43.412;24.612;2023-02-26T10:11:47;98601.19;;;22.03;31.78
11672;BME280;5892;43.412;24.612;2023-02-26T10:14:22;98606.66;;;22.26;31.34
11672;BME280;5892;43.412;24.612;2023-02-26T10:16:53;98582.59;;;21.93;31.12
11672;BME280;5892;43.412;24.612;2023-02-26T10:19:38;98602.47;;;22.18;30.82
11672;BME280;5892;43.412;24.612;2023-02-26T10:22:15;98600.06;;;22.36;31.07
11672;BME280;5892;43.412;24.612;2023-02-26T10:24:47;98522.81;;;21.98;30.49
11672;BME280;5892;43.412;24.612;2023-02-26T10:27:16;98590.13;;;22.35;30.46
11672;BME280;5892;43.412;24.612;2023-02-26T10:29:52;98550.75;;;22.14;30.50
11672;BME280;5892;43.412;24.612;2023-02-26T10:32:27;98582.78;;;22.25;30.63
11672;BME280;5892;43.412;24.612;2023-02-26T10:34:59;98521.22;;;21.96;30.61
11672;BME280;5892;43.412;24.612;2023-02-26T10:37:38;98552.72;;;22.33;30.70
11672;BME280;5892;43.412;24.612;2023-02-26T10:40:12;98551.19;;;22.48;30.03
11672;BME280;5892;43.412;24.612;2023-02-26T10:42:45;98574.06;;;22.23;31.00
11672;BME280;5892;43.412;24.612;2023-02-26T10:45:26;98567.28;;;22.40;30.72
11672;BME280;5892;43.412;24.612;2023-02-26T10:48:05;98581.53;;;22.46;31.17
11672;BME280;5892;43.412;24.612;2023-02-26T10:50:35;98574.22;;;22.52;30.57
11672;BME280;5892;43.412;24.612;2023-02-26T10:53:08;98467.94;;;21.91;30.76
11672;BME280;5892;43.412;24.612;2023-02-26T10:55:40;98572.47;;;22.78;30.79
11672;BME280;5892;43.412;24.612;2023-02-26T11:01:23;98580.06;;;22.94;29.15
11672;BME280;5892;43.412;24.612;2023-02-26T11:03:54;98570.22;;;22.89;29.68
11672;BME280;5892;43.412;24.612;2023-02-26T11:06:27;98563.94;;;22.85;29.57
11672;BME280;5892;43.412;24.612;2023-02-26T11:08:58;98546.22;;;22.92;29.46
11672;BME280;5892;43.412;24.612;2023-02-26T11:11:39;98559.22;;;22.98;28.92
11672;BME280;5892;43.412;24.612;2023-02-26T11:14:07;98563.50;;;22.87;29.33
11672;BME280;5892;43.412;24.612;2023-02-26T11:16:41;98542.38;;;22.86;29.11
11672;BME280;5892;43.412;24.612;2023-02-26T11:19:24;98472.38;;;22.60;29.16
11672;BME280;5892;43.412;24.612;2023-02-26T11:21:54;98558.25;;;23.21;29.21
11672;BME280;5892;43.412;24.612;2023-02-26T11:24:28;98554.00;;;23.16;29.28
11672;BME280;5892;43.412;24.612;2023-02-26T11:26:57;98552.06;;;23.13;29.34
11672;BME280;5892;43.412;24.612;2023-02-26T11:29:26;98541.25;;;22.99;29.58
11672;BME280;5892;43.412;24.612;2023-02-26T11:31:54;98520.94;;;22.63;30.02
11672;BME280;5892;43.412;24.612;2023-02-26T11:34:24;98462.63;;;22.16;30.36
11672;BME280;5892;43.412;24.612;2023-02-26T11:36:53;98471.69;;;22.20;30.23
11672;BME280;5892;43.412;24.612;2023-02-26T11:42:26;98476.19;;;22.34;30.17
11672;BME280;5892;43.412;24.612;2023-02-26T11:44:54;98530.63;;;22.58;30.24
11672;BME280;5892;43.412;24.612;2023-02-26T11:47:25;98511.78;;;22.62;30.42
11672;BME280;5892;43.412;24.612;2023-02-26T11:49:54;98523.59;;;22.70;30.58
11672;BME280;5892;43.412;24.612;2023-02-26T11:52:25;98502.66;;;22.78;31.19
11672;BME280;5892;43.412;24.612;2023-02-26T11:54:58;98510.72;;;22.92;30.87
11672;BME280;5892;43.412;24.612;2023-02-26T11:57:29;98412.84;;;22.15;30.21
11672;BME280;5892;43.412;24.612;2023-02-26T11:59:58;98488.25;;;22.63;30.35
11672;BME280;5892;43.412;24.612;2023-02-26T12:02:30;98443.91;;;22.33;30.50
11672;BME280;5892;43.412;24.612;2023-02-26T12:05:01;98488.59;;;22.65;30.75
11672;BME280;5892;43.412;24.612;2023-02-26T12:07:31;98482.91;;;22.69;30.97
11672;BME280;5892;43.412;24.612;2023-02-26T12:09:58;98470.97;;;22.68;31.31
11672;BME280;5892;43.412;24.612;2023-02-26T12:12:38;98493.03;;;22.63;31.61
11672;BME280;5892;43.412;24.612;2023-02-26T12:15:16;98495.75;;;22.50;32.11
11672;BME280;5892;43.412;24.612;2023-02-26T12:17:57;98509.59;;;22.54;32.14
11672;BME280;5892;43.412;24.612;2023-02-26T12:20:31;98493.09;;;22.43;31.91
11672;BME280;5892;43.412;24.612;2023-02-26T12:23:09;98502.63;;;22.62;31.94
11672;BME280;5892;43.412;24.612;2023-02-26T12:25:56;98481.59;;;22.57;32.25
11672;BME280;5892;43.412;24.612;2023-02-26T12:32:04;98434.22;;;22.37;31.75
11672;BME280;5892;43.412;24.612;2023-02-26T12:34:57;98500.47;;;22.69;31.40
11672;BME280;5892;43.412;24.612;2023-02-26T12:37:37;98508.19;;;22.62;31.88
11672;BME280;5892;43.412;24.612;2023-02-26T12:40:22;98505.50;;;22.58;31.61
11672;BME280;5892;43.412;24.612;2023-02-26T12:42:59;98500.06;;;22.35;31.24
11672;BME280;5892;43.412;24.612;2023-02-26T12:45:40;98523.38;;;22.45;31.33
11672;BME280;5892;43.412;24.612;2023-02-26T12:51:06;98540.78;;;22.32;30.64
11672;BME280;5892;43.412;24.612;2023-02-26T12:53:45;98529.47;;;22.39;30.89
11672;BME280;5892;43.412;24.612;2023-02-26T12:56:35;98543.44;;;22.39;31.12
11672;BME280;5892;43.412;24.612;2023-02-26T13:02:27;98544.78;;;22.31;30.93
11672;BME280;5892;43.412;24.612;2023-02-26T13:05:11;98557.25;;;22.27;31.10
11672;BME280;5892;43.412;24.612;2023-02-26T13:07:55;98540.59;;;22.23;31.08
11672;BME280;5892;43.412;24.612;2023-02-26T13:10:35;98511.19;;;21.79;30.90
11672;BME280;5892;43.412;24.612;2023-02-26T13:13:17;98548.94;;;22.04;30.41
11672;BME280;5892;43.412;24.612;2023-02-26T13:15:58;98556.31;;;21.94;30.75
11672;BME280;5892;43.412;24.612;2023-02-26T13:18:36;98548.75;;;21.94;30.71
11672;BME280;5892;43.412;24.612;2023-02-26T13:21:13;98561.06;;;21.93;31.36
11672;BME280;5892;43.412;24.612;2023-02-26T13:23:48;98555.28;;;21.84;31.18
11672;BME280;5892;43.412;24.612;2023-02-26T13:26:17;98517.44;;;21.44;31.43
11672;BME280;5892;43.412;24.612;2023-02-26T13:28:51;98536.06;;;21.70;31.36
11672;BME280;5892;43.412;24.612;2023-02-26T13:31:37;98540.06;;;21.69;31.34
11672;BME280;5892;43.412;24.612;2023-02-26T13:34:12;98532.06;;;21.71;31.67
11672;BME280;5892;43.412;24.612;2023-02-26T13:36:43;98563.47;;;21.95;30.82
11672;BME280;5892;43.412;24.612;2023-02-26T13:39:22;98568.22;;;21.98;30.79
11672;BME280;5892;43.412;24.612;2023-02-26T13:41:59;98567.97;;;22.09;30.63
11672;BME280;5892;43.412;24.612;2023-02-26T13:44:32;98539.47;;;21.78;30.67